createdAt,value
2022-08-11T00:00:46.992Z,13.37
2022-08-11T00:01:53.404Z,13.38
2022-08-11T00:02:57.310Z,13.37
2022-08-11T00:04:03.228Z,13.24
2022-08-11T00:05:14.005Z,13.29
2022-08-11T00:06:30.189Z,13.23
2022-08-11T00:07:34.801Z,13.33
2022-08-11T00:08:39.012Z,13.30
2022-08-11T00:09:43.119Z,13.29
2022-08-11T00:10:55.309Z,13.29
2022-08-11T00:12:00.613Z,13.30
2022-08-11T00:13:07.948Z,13.29
2022-08-11T00:26:17.150Z,12.90
2022-08-11T00:27:21.401Z,12.90
2022-08-11T00:28:27.822Z,12.90
2022-08-11T00:29:31.475Z,12.84
2022-08-11T00:30:41.186Z,12.92
2022-08-11T00:31:51.104Z,12.88
2022-08-11T00:32:59.156Z,12.86
2022-08-11T00:34:05.212Z,12.82
2022-08-11T00:35:51.761Z,12.86
2022-08-11T00:36:49.249Z,12.87
2022-08-11T00:37:55.981Z,12.88
2022-08-11T00:39:05.862Z,12.89
2022-08-11T00:40:19.228Z,12.86
2022-08-11T00:42:01.418Z,12.92
2022-08-11T00:43:22.986Z,12.93
2022-08-11T00:44:58.262Z,12.84
2022-08-11T00:46:19.363Z,12.93
2022-08-11T00:47:28.746Z,12.95
2022-08-11T00:48:58.436Z,12.95
2022-08-11T00:50:28.118Z,12.91
2022-08-11T00:52:24.066Z,12.85
2022-08-11T00:54:06.239Z,12.77
2022-08-11T00:55:22.545Z,12.73
2022-08-11T00:56:41.137Z,12.76
2022-08-11T00:58:50.822Z,12.79
2022-08-11T01:00:17.283Z,12.76
2022-08-11T01:01:39.937Z,12.77
2022-08-11T01:03:07.061Z,12.79
2022-08-11T01:04:38.380Z,12.77
2022-08-11T01:05:46.783Z,12.70
2022-08-11T01:08:02.818Z,12.70
2022-08-11T01:09:25.929Z,12.67
2022-08-11T01:10:51.921Z,12.63
2022-08-11T01:12:13.541Z,12.57
2022-08-11T01:13:23.067Z,12.54
2022-08-11T01:14:37.260Z,12.52
2022-08-11T01:16:05.987Z,12.46
2022-08-11T01:17:29.469Z,12.36
2022-08-11T01:18:54.992Z,12.41
2022-08-11T01:20:48.629Z,12.39
2022-08-11T01:22:07.592Z,12.36
2022-08-11T01:23:35.542Z,12.36
2022-08-11T01:25:00.075Z,12.36
2022-08-11T01:26:31.710Z,12.33
2022-08-11T01:28:10.514Z,12.32
2022-08-11T01:29:49.164Z,12.30
2022-08-11T01:31:18.912Z,12.26
2022-08-11T01:32:44.529Z,12.19
2022-08-11T01:34:25.757Z,12.21
2022-08-11T01:35:50.702Z,12.17
2022-08-11T01:37:31.307Z,12.16
2022-08-11T01:38:34.871Z,12.14
2022-08-11T01:39:56.842Z,12.15
2022-08-11T01:41:50.757Z,12.16
2022-08-11T01:43:42.465Z,12.15
2022-08-11T01:44:50.567Z,12.13
2022-08-11T01:46:11.761Z,12.15
2022-08-11T01:47:53.754Z,12.15
2022-08-11T01:50:09.786Z,12.13
2022-08-11T01:51:17.261Z,12.10
2022-08-11T01:52:33.506Z,12.09
2022-08-11T01:53:57.103Z,12.07
2022-08-11T01:55:24.562Z,12.03
2022-08-11T01:56:38.812Z,11.98
2022-08-11T01:57:53.848Z,11.96
2022-08-11T01:59:25.326Z,11.94
2022-08-11T02:00:33.624Z,11.89
2022-08-11T02:01:40.097Z,11.89
2022-08-11T02:02:58.848Z,11.90
2022-08-11T02:04:30.263Z,11.87
2022-08-11T02:06:07.794Z,11.64
2022-08-11T02:07:45.907Z,11.66
2022-08-11T02:08:59.707Z,11.83
2022-08-11T02:16:06.071Z,11.79
2022-08-11T02:17:09.465Z,11.84
2022-08-11T02:18:47.707Z,11.86
2022-08-11T02:20:20.677Z,11.87
2022-08-11T02:21:57.852Z,11.87
2022-08-11T02:24:05.706Z,11.86
2022-08-11T02:25:07.799Z,11.83
2022-08-11T02:26:13.972Z,11.82
2022-08-11T02:27:25.149Z,11.81
2022-08-11T02:28:47.463Z,11.80
2022-08-11T02:30:08.861Z,11.77
2022-08-11T02:32:15.438Z,11.75
2022-08-11T02:33:27.707Z,11.67
2022-08-11T02:34:59.963Z,11.67
2022-08-11T02:36:25.766Z,11.58
2022-08-11T02:37:46.442Z,11.67
2022-08-11T02:39:13.509Z,11.67
2022-08-11T02:40:36.966Z,11.69
2022-08-11T02:42:31.975Z,11.70
2022-08-11T02:44:01.133Z,11.69
2022-08-11T02:45:34.870Z,11.70
2022-08-11T02:47:09.276Z,11.68
2022-08-11T02:48:55.961Z,11.72
2022-08-11T02:50:18.522Z,11.72
2022-08-11T02:52:03.936Z,11.68
2022-08-11T02:53:17.760Z,11.72
2022-08-11T02:54:33.191Z,11.72
2022-08-11T02:55:58.219Z,11.72
2022-08-11T02:57:11.862Z,11.70
2022-08-11T02:58:35.717Z,11.68
2022-08-11T03:00:00.254Z,11.65
2022-08-11T03:01:34.160Z,11.54
2022-08-11T03:56:09.092Z,10.90
2022-08-11T03:57:45.833Z,10.91
2022-08-11T03:59:30.824Z,10.79
2022-08-11T04:01:05.173Z,10.73
2022-08-11T04:02:20.893Z,10.74
2022-08-11T04:03:50.496Z,10.77
2022-08-11T04:05:09.844Z,10.79
2022-08-11T04:06:36.623Z,10.83
2022-08-11T04:07:54.900Z,10.88
2022-08-11T04:09:10.645Z,10.94
2022-08-11T04:10:19.262Z,10.99
2022-08-11T04:11:49.255Z,11.04
2022-08-11T04:13:20.325Z,11.08
2022-08-11T04:14:51.415Z,11.14
2022-08-11T04:16:11.059Z,11.17
2022-08-11T04:17:44.877Z,11.20
2022-08-11T04:19:06.584Z,11.12
2022-08-11T04:20:24.000Z,11.24
2022-08-11T04:21:36.063Z,11.23
2022-08-11T04:24:34.812Z,11.22
2022-08-11T04:25:15.885Z,11.15
2022-08-11T04:26:44.353Z,11.14
2022-08-11T04:28:00.178Z,11.12
2022-08-11T04:30:05.115Z,11.11
2022-08-11T04:32:00.932Z,11.07
2022-08-11T04:33:41.929Z,10.94
2022-08-11T04:35:24.064Z,11.06
2022-08-11T04:37:01.181Z,11.03
2022-08-11T04:38:46.787Z,11.01
2022-08-11T04:40:38.778Z,11.01
2022-08-11T04:42:31.933Z,11.00
2022-08-11T04:44:02.478Z,11.01
2022-08-11T04:45:47.173Z,11.02
2022-08-11T04:48:03.532Z,11.01
2022-08-11T04:49:59.167Z,11.03
2022-08-11T04:51:45.476Z,11.07
2022-08-11T04:53:34.287Z,11.14
2022-08-11T04:55:17.191Z,11.19
2022-08-11T04:56:43.559Z,11.25
2022-08-11T04:58:31.275Z,11.32
2022-08-11T05:00:07.135Z,11.35
2022-08-11T05:01:44.155Z,11.33
2022-08-11T05:02:47.431Z,11.34
2022-08-11T05:04:32.646Z,11.36
2022-08-11T05:05:56.168Z,11.39
2022-08-11T05:07:22.481Z,11.45
2022-08-11T05:08:49.598Z,11.51
2022-08-11T05:10:11.667Z,11.58
2022-08-11T05:11:45.757Z,11.65
2022-08-11T05:13:23.125Z,11.70
2022-08-11T05:15:11.082Z,11.79
2022-08-11T05:16:38.943Z,11.87
2022-08-11T05:18:23.728Z,11.95
2022-08-11T05:19:46.311Z,12.05
2022-08-11T05:21:13.118Z,12.12
2022-08-11T05:22:38.727Z,12.20
2022-08-11T05:24:08.472Z,12.28
2022-08-11T05:26:45.430Z,12.36
2022-08-11T05:27:25.034Z,12.42
2022-08-11T05:29:20.154Z,12.37
2022-08-11T05:30:48.425Z,12.53
2022-08-11T05:32:21.033Z,12.60
2022-08-11T05:33:51.915Z,12.65
2022-08-11T05:35:03.290Z,12.67
2022-08-11T05:36:24.840Z,12.74
2022-08-11T05:37:33.224Z,12.80
2022-08-11T05:38:59.636Z,12.83
2022-08-11T05:40:30.332Z,12.86
2022-08-11T05:41:52.932Z,12.93
2022-08-11T05:43:18.885Z,12.95
2022-08-11T05:44:41.257Z,13.00
2022-08-11T05:46:07.116Z,13.04
2022-08-11T05:47:31.021Z,13.08
2022-08-11T05:48:55.134Z,13.13
2022-08-11T05:50:17.489Z,13.17
2022-08-11T05:52:05.337Z,13.23
2022-08-11T05:53:45.810Z,13.28
2022-08-11T05:55:10.397Z,13.33
2022-08-11T05:56:20.724Z,13.38
2022-08-11T05:57:44.014Z,13.42
2022-08-11T05:58:57.747Z,13.47
2022-08-11T06:00:07.496Z,13.51
2022-08-11T06:01:12.729Z,13.57
2022-08-11T06:02:17.067Z,13.61
2022-08-11T06:03:29.626Z,13.65
2022-08-11T06:04:34.057Z,13.69
2022-08-11T06:05:43.885Z,13.73
2022-08-11T06:06:58.694Z,13.77
2022-08-11T06:08:03.727Z,13.80
2022-08-11T06:09:08.692Z,13.85
2022-08-11T06:10:25.588Z,13.90
2022-08-11T06:11:44.282Z,13.93
2022-08-11T06:12:55.143Z,13.98
2022-08-11T06:14:02.705Z,14.02
2022-08-11T06:15:11.235Z,14.05
2022-08-11T06:16:17.729Z,14.10
2022-08-11T06:17:38.482Z,14.14
2022-08-11T06:18:49.360Z,14.17
2022-08-11T06:20:09.372Z,14.22
2022-08-11T06:21:13.697Z,14.27
2022-08-11T06:22:22.166Z,14.31
2022-08-11T06:23:32.835Z,14.37
2022-08-11T06:24:51.104Z,14.40
2022-08-11T06:25:56.401Z,14.45
2022-08-11T06:27:12.420Z,14.48
2022-08-11T06:28:21.074Z,14.52
2022-08-11T06:29:37.473Z,14.55
2022-08-11T06:30:45.597Z,14.59
2022-08-11T06:31:58.337Z,14.62
2022-08-11T06:33:06.753Z,14.67
2022-08-11T06:34:27.592Z,14.71
2022-08-11T06:35:59.915Z,14.77
2022-08-11T06:37:35.836Z,14.84
2022-08-11T06:38:59.239Z,15.15
2022-08-11T06:40:11.867Z,15.58
2022-08-11T06:41:32.292Z,15.93
2022-08-11T06:43:37.280Z,16.30
2022-08-11T06:44:48.727Z,16.83
2022-08-11T06:46:03.654Z,17.10
2022-08-11T06:47:12.856Z,17.37
2022-08-11T06:48:18.784Z,17.59
2022-08-11T06:49:51.171Z,17.78
2022-08-11T06:51:15.472Z,18.02
2022-08-11T06:52:35.180Z,18.19
2022-08-11T06:53:56.266Z,18.38
2022-08-11T06:55:57.450Z,18.60
2022-08-11T06:57:30.939Z,18.87
2022-08-11T06:58:57.941Z,19.06
2022-08-11T07:00:23.115Z,19.25
2022-08-11T07:02:01.795Z,19.41
2022-08-11T07:03:16.884Z,19.56
2022-08-11T07:04:43.369Z,19.64
2022-08-11T07:05:56.118Z,19.69
2022-08-11T07:07:31.432Z,19.92
2022-08-11T07:09:22.808Z,20.13
2022-08-11T07:10:50.568Z,20.34
2022-08-11T07:12:51.535Z,20.45
2022-08-11T07:14:20.547Z,20.55
2022-08-11T07:16:10.694Z,20.67
2022-08-11T07:17:11.458Z,20.79
2022-08-11T07:18:46.328Z,20.90
2022-08-11T07:20:17.179Z,21.08
2022-08-11T07:22:00.646Z,21.23
2022-08-11T07:23:38.797Z,21.43
2022-08-11T07:25:08.798Z,21.55
2022-08-11T07:26:31.377Z,21.71
2022-08-11T07:28:02.444Z,21.86
2022-08-11T07:29:08.182Z,22.06
2022-08-11T07:30:12.040Z,22.15
2022-08-11T07:31:30.346Z,22.26
2022-08-11T07:32:37.914Z,22.42
2022-08-11T07:34:07.300Z,22.55
2022-08-11T07:35:17.848Z,22.69
2022-08-11T07:36:24.833Z,22.80
2022-08-11T07:37:35.084Z,22.90
2022-08-11T07:38:47.487Z,23.04
2022-08-11T07:39:54.301Z,23.13
2022-08-11T07:40:59.850Z,23.16
2022-08-11T07:42:09.267Z,23.25
2022-08-11T07:43:13.838Z,23.37
2022-08-11T07:44:18.306Z,23.50
2022-08-11T07:45:43.197Z,23.59
2022-08-11T07:47:07.568Z,23.66
2022-08-11T07:48:30.394Z,23.77
2022-08-11T07:49:56.394Z,23.97
2022-08-11T07:51:20.000Z,23.90
2022-08-11T07:52:32.703Z,24.19
2022-08-11T07:53:41.898Z,24.20
2022-08-11T07:55:05.511Z,24.27
2022-08-11T07:56:08.758Z,24.35
2022-08-11T07:57:57.724Z,24.33
2022-08-11T07:59:17.782Z,24.38
2022-08-11T08:00:43.717Z,24.46
2022-08-11T08:02:13.783Z,24.68
2022-08-11T08:03:38.778Z,24.82
2022-08-11T08:05:18.203Z,24.97
2022-08-11T08:06:40.541Z,24.89
2022-08-11T08:08:04.075Z,24.85
2022-08-11T08:09:27.579Z,25.15
2022-08-11T08:10:51.324Z,25.12
2022-08-11T08:12:14.644Z,25.00
2022-08-11T08:13:36.722Z,24.99
2022-08-11T08:14:58.717Z,24.94
2022-08-11T08:16:23.218Z,24.82
2022-08-11T08:18:09.216Z,24.86
2022-08-11T08:19:16.516Z,24.98
2022-08-11T08:20:23.175Z,24.97
2022-08-11T08:21:26.678Z,25.02
2022-08-11T08:22:39.065Z,24.88
2022-08-11T08:23:47.196Z,24.70
2022-08-11T08:25:00.386Z,24.77
2022-08-11T08:26:31.402Z,24.75
2022-08-11T08:27:39.796Z,24.93
2022-08-11T08:28:46.809Z,25.06
2022-08-11T08:30:13.596Z,25.18
2022-08-11T08:31:22.758Z,25.17
2022-08-11T08:32:32.117Z,25.23
2022-08-11T08:33:37.937Z,25.32
2022-08-11T08:34:42.267Z,25.42
2022-08-11T08:36:19.178Z,25.52
2022-08-11T08:37:47.221Z,25.45
2022-08-11T08:38:54.463Z,25.44
2022-08-11T08:39:58.930Z,25.43
2022-08-11T08:41:03.274Z,25.52
2022-08-11T08:42:13.182Z,25.49
2022-08-11T08:43:18.708Z,25.59
2022-08-11T08:44:38.500Z,25.59
2022-08-11T08:45:44.793Z,25.64
2022-08-11T08:46:55.577Z,25.68
2022-08-11T08:48:11.248Z,25.70
2022-08-11T08:49:26.132Z,25.65
2022-08-11T08:50:53.088Z,25.54
2022-08-11T08:52:21.638Z,25.54
2022-08-11T08:53:32.206Z,25.54
2022-08-11T08:54:40.019Z,25.65
2022-08-11T08:55:46.505Z,25.66
2022-08-11T08:56:55.465Z,25.65
2022-08-11T08:58:03.786Z,25.60
2022-08-11T08:59:08.192Z,25.72
2022-08-11T09:00:17.906Z,25.83
2022-08-11T09:01:28.987Z,25.73
2022-08-11T09:02:34.295Z,25.78
2022-08-11T09:04:06.943Z,25.86
2022-08-11T09:05:09.242Z,25.87
2022-08-11T09:06:16.820Z,25.90
2022-08-11T09:07:24.050Z,25.96
2022-08-11T09:08:28.729Z,25.92
2022-08-11T09:09:32.202Z,25.98
2022-08-11T09:10:37.159Z,26.06
2022-08-11T09:11:53.726Z,26.01
2022-08-11T09:13:01.175Z,25.99
2022-08-11T09:14:09.289Z,26.09
2022-08-11T09:15:19.781Z,26.24
2022-08-11T09:16:24.631Z,26.20
2022-08-11T09:17:45.991Z,26.34
2022-08-11T09:18:49.392Z,26.32
2022-08-11T09:20:06.682Z,26.41
2022-08-11T09:21:11.087Z,26.43
2022-08-11T09:22:39.265Z,26.47
2022-08-11T09:24:09.070Z,26.50
2022-08-11T09:25:33.805Z,26.62
2022-08-11T09:26:59.423Z,26.68
2022-08-11T09:28:05.400Z,26.64
2022-08-11T09:29:11.565Z,26.54
2022-08-11T09:30:14.870Z,26.65
2022-08-11T09:31:18.257Z,26.66
2022-08-11T09:32:29.126Z,26.70
2022-08-11T09:33:33.330Z,26.63
2022-08-11T09:34:37.607Z,26.61
2022-08-11T09:35:45.760Z,26.54
2022-08-11T09:37:08.236Z,26.67
2022-08-11T09:38:32.927Z,26.66
2022-08-11T09:39:57.239Z,26.62
2022-08-11T09:41:03.296Z,26.60
2022-08-11T09:42:11.151Z,26.71
2022-08-11T09:43:39.209Z,26.61
2022-08-11T09:44:49.235Z,26.42
2022-08-11T09:45:54.294Z,26.43
2022-08-11T09:47:00.948Z,26.56
2022-08-11T09:48:05.616Z,26.50
2022-08-11T09:49:10.545Z,26.53
2022-08-11T09:50:17.529Z,26.56
2022-08-11T09:51:22.656Z,26.65
2022-08-11T09:52:27.337Z,26.80
2022-08-11T09:53:40.775Z,26.85
2022-08-11T09:54:48.946Z,26.87
2022-08-11T09:55:53.054Z,26.85
2022-08-11T09:57:15.147Z,26.81
2022-08-11T09:58:42.377Z,26.87
2022-08-11T09:59:43.867Z,26.98
2022-08-11T10:00:49.971Z,26.70
2022-08-11T10:01:59.503Z,26.81
2022-08-11T10:03:07.430Z,27.00
2022-08-11T10:04:17.002Z,27.10
2022-08-11T10:05:39.878Z,27.11
2022-08-11T10:07:04.921Z,27.09
2022-08-11T10:08:12.967Z,27.22
2022-08-11T10:09:21.636Z,27.26
2022-08-11T10:10:27.493Z,27.15
2022-08-11T10:11:31.023Z,26.90
2022-08-11T10:12:42.284Z,26.89
2022-08-11T10:14:31.392Z,26.92
2022-08-11T10:15:34.369Z,27.02
2022-08-11T10:16:44.972Z,27.11
2022-08-11T10:18:11.861Z,27.12
2022-08-11T10:19:19.703Z,26.99
2022-08-11T10:20:25.834Z,26.83
2022-08-11T10:21:42.792Z,26.73
2022-08-11T10:23:04.761Z,26.61
2022-08-11T10:24:27.928Z,26.61
2022-08-11T10:25:49.958Z,26.59
2022-08-11T10:26:55.310Z,26.73
2022-08-11T10:28:33.057Z,27.02
2022-08-11T10:29:49.578Z,27.32
2022-08-11T10:31:13.545Z,27.47
2022-08-11T10:32:57.585Z,27.64
2022-08-11T10:34:06.289Z,27.91
2022-08-11T10:35:14.583Z,27.94
2022-08-11T10:36:20.647Z,27.98
2022-08-11T10:37:25.424Z,28.04
2022-08-11T10:38:52.551Z,28.28
2022-08-11T10:39:57.207Z,28.24
2022-08-11T10:41:20.059Z,28.21
2022-08-11T10:42:57.128Z,28.06
2022-08-11T10:44:04.242Z,27.93
2022-08-11T10:45:27.402Z,27.89
2022-08-11T10:46:50.580Z,27.88
2022-08-11T10:47:56.547Z,27.94
2022-08-11T10:49:02.044Z,27.99
2022-08-11T10:50:32.480Z,28.15
2022-08-11T10:51:58.650Z,28.30
2022-08-11T10:53:26.253Z,28.42
2022-08-11T10:54:47.995Z,28.32
2022-08-11T10:56:10.521Z,28.26
2022-08-11T10:57:34.843Z,28.06
2022-08-11T10:58:46.326Z,27.98
2022-08-11T10:59:54.938Z,28.18
2022-08-11T11:01:01.046Z,28.45
2022-08-11T11:02:04.808Z,28.82
2022-08-11T11:03:23.664Z,28.86
2022-08-11T11:04:52.786Z,28.96
2022-08-11T11:06:28.667Z,29.18
2022-08-11T11:08:26.826Z,29.32
2022-08-11T11:09:58.519Z,29.32
2022-08-11T11:11:06.076Z,29.32
2022-08-11T11:12:35.420Z,29.48
2022-08-11T11:13:58.746Z,29.46
2022-08-11T11:15:23.109Z,29.36
2022-08-11T11:16:55.677Z,29.37
2022-08-11T11:18:12.967Z,29.41
2022-08-11T11:19:21.026Z,29.77
2022-08-11T11:20:35.881Z,29.74
2022-08-11T11:21:42.339Z,29.49
2022-08-11T11:22:52.627Z,29.25
2022-08-11T11:24:17.850Z,29.09
2022-08-11T11:25:28.310Z,29.09
2022-08-11T11:26:56.148Z,29.24
2022-08-11T11:28:24.892Z,29.26
2022-08-11T11:29:53.322Z,29.21
2022-08-11T11:31:12.165Z,29.16
2022-08-11T11:32:28.182Z,29.20
2022-08-11T11:34:12.587Z,29.11
2022-08-11T11:35:47.541Z,29.27
2022-08-11T11:36:55.351Z,29.52
2022-08-11T11:38:04.350Z,29.74
2022-08-11T11:39:09.772Z,29.81
2022-08-11T11:40:21.622Z,29.85
2022-08-11T11:41:32.592Z,29.73
2022-08-11T11:42:36.092Z,29.64
2022-08-11T11:43:39.587Z,29.67
2022-08-11T11:44:45.948Z,29.78
2022-08-11T11:45:49.352Z,29.86
2022-08-11T11:46:53.101Z,29.85
2022-08-11T11:47:59.596Z,29.90
2022-08-11T11:49:15.285Z,29.94
2022-08-11T11:50:39.520Z,30.02
2022-08-11T11:51:43.983Z,30.09
2022-08-11T11:52:54.187Z,30.27
2022-08-11T11:53:57.655Z,30.51
2022-08-11T11:55:02.871Z,30.66
2022-08-11T11:56:07.317Z,30.81
2022-08-11T11:57:33.570Z,30.78
2022-08-11T11:59:02.352Z,30.95
2022-08-11T12:00:33.236Z,31.25
2022-08-11T12:01:50.192Z,31.28
2022-08-11T12:02:58.683Z,31.25
2022-08-11T12:04:08.149Z,31.24
2022-08-11T12:05:11.917Z,31.25
2022-08-11T12:06:17.289Z,31.09
2022-08-11T12:07:40.252Z,30.98
2022-08-11T12:08:45.195Z,31.19
2022-08-11T12:09:49.093Z,31.44
2022-08-11T12:11:22.411Z,31.65
2022-08-11T12:12:52.232Z,31.83
2022-08-11T12:14:00.781Z,31.98
2022-08-11T12:15:08.532Z,32.16
2022-08-11T12:16:34.976Z,32.40
2022-08-11T12:17:40.360Z,32.45
2022-08-11T12:18:47.979Z,32.33
2022-08-11T12:19:57.242Z,32.23
2022-08-11T12:21:15.946Z,32.01
2022-08-11T12:22:39.080Z,31.90
2022-08-11T12:24:07.611Z,31.50
2022-08-11T12:25:30.459Z,31.05
2022-08-11T12:26:54.395Z,30.60
2022-08-11T12:28:13.870Z,30.21
2022-08-11T12:29:24.526Z,30.02
2022-08-11T12:30:28.364Z,29.93
2022-08-11T12:31:33.520Z,30.00
2022-08-11T12:32:41.758Z,30.08
2022-08-11T12:33:47.440Z,30.26
2022-08-11T12:34:51.063Z,30.36
2022-08-11T12:36:01.073Z,30.48
2022-08-11T12:37:13.278Z,30.48
2022-08-11T12:38:29.692Z,30.56
2022-08-11T12:40:16.598Z,30.67
2022-08-11T12:41:53.652Z,30.84
2022-08-11T12:43:24.335Z,30.70
2022-08-11T12:45:22.252Z,30.53
2022-08-11T12:46:43.168Z,30.28
2022-08-11T12:48:58.747Z,30.21
2022-08-11T12:49:56.815Z,29.91
2022-08-11T12:51:24.753Z,29.63
2022-08-11T12:52:34.206Z,29.44
2022-08-11T12:53:46.624Z,29.42
2022-08-11T12:55:13.950Z,29.66
2022-08-11T12:56:38.962Z,29.74
2022-08-11T12:58:07.221Z,29.51
2022-08-11T12:59:29.640Z,29.27
2022-08-11T13:00:52.347Z,29.18
2022-08-11T13:02:14.437Z,29.03
2022-08-11T13:03:39.387Z,28.89
2022-08-11T13:04:59.614Z,28.99
2022-08-11T13:06:06.376Z,28.96
2022-08-11T13:07:10.622Z,29.05
2022-08-11T13:08:15.784Z,29.06
2022-08-11T13:09:24.300Z,29.05
2022-08-11T13:10:47.970Z,29.25
2022-08-11T13:12:10.249Z,29.39
2022-08-11T13:13:54.623Z,29.41
2022-08-11T13:14:40.207Z,29.48
2022-08-11T13:15:46.390Z,29.62
2022-08-11T13:17:08.954Z,29.77
2022-08-11T13:18:19.218Z,29.77
2022-08-11T13:19:26.078Z,29.84
2022-08-11T13:20:30.157Z,29.96
2022-08-11T13:21:33.888Z,29.96
2022-08-11T13:22:38.203Z,30.00
2022-08-11T13:23:42.741Z,29.96
2022-08-11T13:25:07.816Z,29.82
2022-08-11T13:26:11.627Z,29.71
2022-08-11T13:27:19.012Z,29.70
2022-08-11T13:28:25.547Z,29.58
2022-08-11T13:29:30.254Z,29.51
2022-08-11T13:30:52.655Z,29.47
2022-08-11T13:32:00.672Z,29.42
2022-08-11T13:33:06.579Z,29.42
2022-08-11T13:34:14.439Z,29.53
2022-08-11T13:35:18.734Z,29.52
2022-08-11T13:36:28.822Z,29.37
2022-08-11T13:38:27.584Z,29.16
2022-08-11T13:39:00.161Z,28.95
2022-08-11T13:40:03.987Z,28.84
2022-08-11T13:41:28.292Z,28.71
2022-08-11T13:42:31.965Z,28.59
2022-08-11T13:43:46.272Z,28.69
2022-08-11T13:44:50.122Z,28.78
2022-08-11T13:46:14.818Z,28.87
2022-08-11T13:47:18.399Z,29.11
2022-08-11T13:48:22.909Z,29.32
2022-08-11T13:49:27.213Z,29.64
2022-08-11T13:50:51.999Z,29.97
2022-08-11T13:51:56.302Z,30.35
2022-08-11T13:52:59.596Z,30.50
2022-08-11T13:54:09.477Z,30.27
2022-08-11T13:55:44.972Z,30.26
2022-08-11T13:56:49.980Z,30.38
2022-08-11T13:58:08.813Z,30.49
2022-08-11T13:59:30.319Z,30.59
2022-08-11T14:00:34.774Z,30.64
2022-08-11T14:02:07.249Z,30.60
2022-08-11T14:03:09.181Z,30.54
2022-08-11T14:04:30.469Z,30.57
2022-08-11T14:05:45.910Z,30.45
2022-08-11T14:06:54.339Z,30.34
2022-08-11T14:08:04.023Z,30.23
2022-08-11T14:09:11.039Z,30.11
2022-08-11T14:10:17.565Z,29.94
2022-08-11T14:12:22.263Z,29.70
2022-08-11T14:13:42.318Z,29.19
2022-08-11T14:15:08.356Z,28.97
2022-08-11T14:16:26.886Z,28.95
2022-08-11T14:17:38.372Z,29.03
2022-08-11T14:18:55.380Z,29.04
2022-08-11T14:20:01.962Z,29.02
2022-08-11T14:21:47.392Z,29.01
2022-08-11T14:22:58.001Z,29.03
2022-08-11T14:24:03.672Z,29.10
2022-08-11T14:25:07.435Z,29.26
2022-08-11T14:26:23.910Z,29.49
2022-08-11T14:28:43.761Z,29.69
2022-08-11T14:29:00.010Z,29.94
2022-08-11T14:30:06.741Z,30.19
2022-08-11T14:31:10.156Z,30.41
2022-08-11T14:32:15.068Z,30.61
2022-08-11T14:33:20.382Z,30.77
2022-08-11T14:34:27.837Z,30.82
2022-08-11T14:35:32.619Z,30.92
2022-08-11T14:36:38.555Z,30.86
2022-08-11T14:37:42.154Z,30.69
2022-08-11T14:38:48.803Z,30.57
2022-08-11T14:40:02.681Z,30.50
2022-08-11T14:41:26.298Z,30.44
2022-08-11T14:42:48.579Z,30.47
2022-08-11T14:44:14.766Z,30.42
2022-08-11T14:45:57.524Z,30.23
2022-08-11T14:47:24.367Z,29.86
2022-08-11T14:48:28.417Z,29.63
2022-08-11T14:49:57.996Z,29.38
2022-08-11T14:51:06.069Z,28.94
2022-08-11T14:52:15.308Z,28.67
2022-08-11T14:53:22.819Z,28.44
2022-08-11T14:54:48.066Z,28.21
2022-08-11T14:56:12.515Z,28.02
2022-08-11T14:57:18.298Z,28.02
2022-08-11T14:58:43.178Z,28.14
2022-08-11T14:59:49.084Z,28.24
2022-08-11T15:00:59.162Z,28.35
2022-08-11T15:02:22.898Z,28.40
2022-08-11T15:03:28.538Z,28.68
2022-08-11T15:04:36.248Z,28.73
2022-08-11T15:05:57.157Z,28.83
2022-08-11T15:07:02.012Z,28.83
2022-08-11T15:08:07.297Z,28.89
2022-08-11T15:09:10.683Z,28.90
2022-08-11T15:10:21.587Z,29.03
2022-08-11T15:11:45.060Z,29.24
2022-08-11T15:12:51.477Z,29.34
2022-08-11T15:13:56.903Z,29.42
2022-08-11T15:15:24.295Z,29.48
2022-08-11T15:16:47.706Z,29.41
2022-08-11T15:17:54.742Z,29.44
2022-08-11T15:18:58.647Z,29.39
2022-08-11T15:20:26.323Z,29.25
2022-08-11T15:21:50.240Z,29.25
2022-08-11T15:23:14.387Z,29.26
2022-08-11T15:24:21.471Z,29.39
2022-08-11T15:25:25.233Z,29.46
2022-08-11T15:26:53.394Z,29.47
2022-08-11T15:28:17.057Z,29.40
2022-08-11T15:29:43.231Z,29.34
2022-08-11T15:31:10.274Z,29.31
2022-08-11T15:32:22.639Z,29.38
2022-08-11T15:33:45.910Z,29.42
2022-08-11T15:35:17.768Z,29.38
2022-08-11T15:36:40.497Z,29.36
2022-08-11T15:37:45.726Z,29.40
2022-08-11T15:39:19.477Z,29.49
2022-08-11T15:40:48.051Z,29.68
2022-08-11T15:42:24.075Z,29.77
2022-08-11T15:44:02.757Z,29.78
2022-08-11T15:45:29.290Z,30.01
2022-08-11T15:46:39.598Z,30.36
2022-08-11T15:47:48.823Z,30.59
2022-08-11T15:48:59.977Z,30.67
2022-08-11T15:50:11.001Z,30.61
2022-08-11T15:51:28.673Z,30.61
2022-08-11T15:52:39.471Z,30.63
2022-08-11T15:53:56.214Z,30.60
2022-08-11T15:55:05.741Z,30.44
2022-08-11T15:56:13.025Z,30.31
2022-08-11T15:57:40.092Z,30.27
2022-08-11T15:59:10.495Z,30.23
2022-08-11T16:00:49.023Z,30.24
2022-08-11T16:02:24.132Z,30.22
2022-08-11T16:04:06.371Z,29.89
2022-08-11T16:05:14.290Z,29.59
2022-08-11T16:06:57.900Z,29.58
2022-08-11T16:08:02.821Z,29.57
2022-08-11T16:09:18.003Z,29.50
2022-08-11T16:10:22.622Z,29.51
2022-08-11T16:11:29.258Z,29.53
2022-08-11T16:13:03.413Z,29.49
2022-08-11T16:14:47.443Z,29.40
2022-08-11T16:16:14.678Z,29.31
2022-08-11T16:17:19.342Z,29.15
2022-08-11T16:18:40.911Z,28.98
2022-08-11T16:19:47.115Z,28.73
2022-08-11T16:20:55.987Z,28.53
2022-08-11T16:21:59.340Z,28.25
2022-08-11T16:23:08.661Z,28.13
2022-08-11T16:26:38.768Z,28.07
2022-08-11T16:27:01.428Z,28.14
2022-08-11T16:27:12.996Z,27.91
2022-08-11T16:28:20.953Z,27.80
2022-08-11T16:29:25.504Z,27.79
2022-08-11T16:30:32.057Z,27.84
2022-08-11T16:31:41.126Z,27.92
2022-08-11T16:32:47.333Z,27.96
2022-08-11T16:33:52.708Z,27.93
2022-08-11T16:35:24.399Z,27.90
2022-08-11T16:37:04.407Z,27.83
2022-08-11T16:38:29.659Z,27.73
2022-08-11T16:39:33.794Z,27.74
2022-08-11T16:40:39.058Z,27.73
2022-08-11T16:42:02.421Z,27.70
2022-08-11T16:43:31.401Z,27.59
2022-08-11T16:44:54.032Z,27.40
2022-08-11T16:46:17.339Z,27.38
2022-08-11T16:48:03.502Z,27.25
2022-08-11T16:48:49.339Z,27.19
2022-08-11T16:49:54.946Z,27.14
2022-08-11T16:51:01.070Z,27.00
2022-08-11T16:52:12.255Z,26.88
2022-08-11T16:53:17.565Z,26.71
2022-08-11T16:54:21.030Z,26.55
2022-08-11T16:55:51.678Z,26.51
2022-08-11T16:56:56.772Z,26.30
2022-08-11T16:58:20.344Z,26.13
2022-08-11T16:59:38.570Z,25.95
2022-08-11T17:00:41.868Z,25.81
2022-08-11T17:01:59.725Z,25.74
2022-08-11T17:03:22.963Z,25.66
2022-08-11T17:04:55.862Z,25.55
2022-08-11T17:06:18.792Z,25.55
2022-08-11T17:07:43.381Z,25.47
2022-08-11T17:09:14.980Z,25.30
2022-08-11T17:10:51.156Z,25.28
2022-08-11T17:12:19.350Z,25.23
2022-08-11T17:13:59.787Z,25.12
2022-08-11T17:15:29.697Z,24.99
2022-08-11T17:16:37.204Z,24.95
2022-08-11T17:17:47.106Z,24.81
2022-08-11T17:19:05.673Z,24.77
2022-08-11T17:20:38.588Z,24.79
2022-08-11T17:22:16.751Z,24.67
2022-08-11T17:23:38.452Z,24.60
2022-08-11T17:24:45.367Z,24.62
2022-08-11T17:26:03.929Z,24.65
2022-08-11T17:27:09.355Z,24.68
2022-08-11T17:28:14.438Z,24.69
2022-08-11T17:29:25.133Z,24.69
2022-08-11T17:32:32.491Z,24.67
2022-08-11T17:34:17.238Z,24.63
2022-08-11T17:35:31.258Z,24.58
2022-08-11T17:36:41.543Z,24.43
2022-08-11T17:37:50.755Z,24.49
2022-08-11T17:38:54.143Z,24.45
2022-08-11T17:39:58.752Z,24.38
2022-08-11T17:41:24.886Z,24.35
2022-08-11T17:42:48.998Z,24.27
2022-08-11T17:44:14.920Z,24.22
2022-08-11T17:45:40.146Z,24.15
2022-08-11T17:47:06.148Z,24.11
2022-08-11T17:48:26.881Z,24.10
2022-08-11T17:49:37.847Z,24.08
2022-08-11T17:50:42.444Z,24.05
2022-08-11T17:52:05.227Z,24.04
2022-08-11T17:53:30.016Z,24.01
2022-08-11T17:54:55.311Z,23.91
2022-08-11T17:56:34.298Z,23.81
2022-08-11T17:57:58.752Z,23.62
2022-08-11T17:59:22.438Z,23.54
2022-08-11T18:00:26.227Z,23.49
2022-08-11T18:01:34.178Z,23.46
2022-08-11T18:03:03.084Z,23.44
2022-08-11T18:04:11.634Z,23.35
2022-08-11T18:05:18.526Z,23.30
2022-08-11T18:06:33.942Z,23.25
2022-08-11T18:07:58.032Z,23.17
2022-08-11T18:09:23.348Z,23.05
2022-08-11T18:10:48.126Z,22.93
2022-08-11T18:12:13.182Z,22.83
2022-08-11T18:13:42.125Z,22.73
2022-08-11T18:15:09.849Z,22.59
2022-08-11T18:16:32.124Z,22.51